Terminal Aerodrome Forecast
Issued by NWS

Home | Current Version | Previous Version | Text Only | Print | Product List | Glossary On
Versions: 1 2 3 4 5 6 7 8 9 10 11 12 13 14 15 16 17 18
000
FTUS42 KFFC 222328
TAFRYY
TAF
KRYY 222328Z 2300/2324 17005KT 6SM SHRA SCT020 BKN060
      TEMPO 2300/2301 VRB12G20KT 4SM -TSRA BKN025CB
     FM230300 16004KT P6SM OVC025
     FM230800 20003KT P6SM BKN015
     FM231500 20010KT P6SM SCT025
     FM231800 21011G19KT P6SM SCT040 PROB30 2320/2324 -TSRA BKN030CB
      AMD NOT SKED 2304/2312=

USA.gov is the U.S. government's official web portal to all federal, state and local government web resources and services.